createdAt,value
2023-02-02T00:02:47.091Z,3.90
2023-02-02T00:08:49.531Z,3.90
2023-02-02T00:14:51.320Z,4.00
2023-02-02T00:20:53.711Z,4.10
2023-02-02T00:26:57.737Z,4.10
2023-02-02T00:32:59.630Z,4.20
2023-02-02T00:39:01.598Z,4.20
2023-02-02T00:45:17.001Z,4.10
2023-02-02T00:51:20.282Z,4.10
2023-02-02T00:57:22.922Z,4.20
2023-02-02T01:03:24.802Z,4.20
2023-02-02T01:09:26.726Z,4.20
2023-02-02T01:15:30.498Z,4.20
2023-02-02T01:21:32.501Z,4.30
2023-02-02T01:27:34.269Z,4.40
2023-02-02T01:33:36.549Z,4.50
2023-02-02T01:39:38.577Z,4.40
2023-02-02T01:45:40.474Z,4.30
2023-02-02T01:51:48.940Z,4.40
2023-02-02T01:58:08.307Z,4.50
2023-02-02T02:04:14.916Z,4.50
2023-02-02T02:10:19.478Z,4.50
2023-02-02T02:16:44.740Z,4.50
2023-02-02T02:23:43.153Z,4.50
2023-02-02T02:29:49.137Z,4.50
2023-02-02T02:36:01.588Z,4.60
2023-02-02T02:42:11.100Z,4.70
2023-02-02T02:48:13.213Z,4.60
2023-02-02T02:54:27.014Z,4.50
2023-02-02T03:00:41.234Z,4.50
2023-02-02T03:06:48.625Z,4.60
2023-02-02T03:12:53.787Z,4.50
2023-02-02T03:18:56.842Z,4.60
2023-02-02T03:24:59.567Z,4.50
2023-02-02T03:31:02.815Z,4.50
2023-02-02T03:37:04.782Z,4.60
2023-02-02T03:43:06.749Z,4.60
2023-02-02T03:49:08.594Z,4.60
2023-02-02T03:55:10.472Z,4.60
2023-02-02T04:01:15.057Z,4.70
2023-02-02T04:07:16.883Z,4.80
2023-02-02T04:13:18.611Z,4.60
2023-02-02T04:19:20.407Z,4.60
2023-02-02T04:25:22.405Z,4.60
2023-02-02T04:31:24.367Z,4.60
2023-02-02T04:37:26.217Z,4.50
2023-02-02T04:43:28.070Z,4.60
2023-02-02T04:49:30.468Z,4.50
2023-02-02T04:55:36.607Z,4.50
2023-02-02T05:01:38.376Z,4.40
2023-02-02T05:07:40.659Z,4.40
2023-02-02T05:13:47.279Z,4.60
2023-02-02T05:19:49.225Z,4.60
2023-02-02T05:25:55.339Z,4.70
2023-02-02T05:31:58.963Z,4.60
2023-02-02T05:38:00.815Z,4.50
2023-02-02T05:44:03.256Z,4.50
2023-02-02T05:50:05.430Z,4.40
2023-02-02T05:56:07.617Z,4.30
2023-02-02T06:02:09.404Z,4.30
2023-02-02T06:08:11.227Z,4.30
2023-02-02T06:14:13.132Z,4.30
2023-02-02T06:20:15.140Z,4.40
2023-02-02T06:26:18.126Z,4.40
2023-02-02T06:32:19.990Z,4.40
2023-02-02T06:38:21.787Z,4.40
2023-02-02T06:44:23.554Z,4.40
2023-02-02T06:50:25.371Z,4.50
2023-02-02T06:56:27.233Z,4.60
2023-02-02T07:02:29.045Z,4.50
2023-02-02T07:08:30.824Z,4.60
2023-02-02T07:14:32.615Z,4.60
2023-02-02T07:20:34.607Z,4.70
2023-02-02T07:26:36.618Z,4.70
2023-02-02T07:32:38.432Z,4.70
2023-02-02T07:38:40.299Z,4.70
2023-02-02T07:44:42.104Z,4.70
2023-02-02T07:50:43.912Z,4.60
2023-02-02T07:56:46.896Z,4.40
2023-02-02T08:02:49.653Z,4.30
2023-02-02T08:08:52.240Z,4.30
2023-02-02T08:14:54.241Z,4.20
2023-02-02T08:20:59.788Z,4.20
2023-02-02T08:27:01.721Z,4.20
2023-02-02T08:33:03.640Z,4.20
2023-02-02T08:39:08.098Z,4.20
2023-02-02T08:46:04.565Z,4.20
2023-02-02T08:51:32.020Z,4.30
2023-02-02T08:57:34.498Z,4.30
2023-02-02T09:03:38.885Z,4.40
2023-02-02T09:09:40.744Z,4.40
2023-02-02T09:15:42.544Z,4.30
2023-02-02T09:21:44.429Z,4.30
2023-02-02T09:27:46.229Z,4.40
2023-02-02T09:33:48.203Z,4.50
2023-02-02T09:39:50.064Z,4.50
2023-02-02T09:46:28.881Z,4.60
2023-02-02T09:52:46.468Z,4.60
2023-02-02T09:58:55.446Z,4.70
2023-02-02T10:05:08.792Z,4.90
2023-02-02T10:11:35.160Z,5.00
2023-02-02T10:17:58.031Z,5.10
2023-02-02T10:24:02.498Z,5.30
2023-02-02T10:30:17.960Z,5.20
2023-02-02T10:36:43.077Z,5.30
2023-02-02T10:43:18.633Z,5.40
2023-02-02T10:49:35.352Z,5.30
2023-02-02T10:55:51.793Z,5.20
2023-02-02T11:01:53.691Z,5.40
2023-02-02T11:07:55.764Z,5.40
2023-02-02T11:14:09.883Z,5.50
2023-02-02T11:20:35.507Z,5.40
2023-02-02T11:26:49.942Z,5.30
2023-02-02T11:32:51.940Z,5.30
2023-02-02T11:39:16.763Z,5.20
2023-02-02T11:45:30.275Z,5.10
2023-02-02T11:51:32.605Z,5.10
2023-02-02T11:57:34.428Z,5.10
2023-02-02T12:03:39.627Z,5.00
2023-02-02T12:09:45.984Z,4.90
2023-02-02T12:16:13.805Z,4.90
2023-02-02T12:22:20.888Z,4.80
2023-02-02T12:28:39.003Z,4.90
2023-02-02T12:34:46.752Z,5.00
2023-02-02T12:41:09.942Z,5.20
2023-02-02T12:48:07.208Z,5.30
2023-02-02T12:54:32.795Z,5.20
2023-02-02T13:00:38.405Z,5.20
2023-02-02T13:07:09.447Z,5.20
2023-02-02T13:13:16.030Z,5.30
2023-02-02T13:19:38.960Z,5.10
2023-02-02T13:26:07.406Z,4.90
2023-02-02T13:32:41.785Z,4.80
2023-02-02T13:38:45.742Z,4.90
2023-02-02T13:44:58.514Z,5.00
2023-02-02T13:51:18.365Z,5.20
2023-02-02T13:57:35.441Z,5.30
2023-02-02T14:03:57.500Z,5.30
2023-02-02T14:09:59.675Z,5.40
2023-02-02T14:16:06.035Z,5.50
2023-02-02T14:22:12.094Z,5.30
2023-02-02T14:28:44.894Z,5.30
2023-02-02T14:34:47.019Z,5.10
2023-02-02T14:41:13.112Z,4.80
2023-02-02T14:47:48.225Z,4.70
2023-02-02T14:53:53.416Z,4.60
2023-02-02T14:59:58.225Z,4.50
2023-02-02T15:06:13.859Z,4.30
2023-02-02T15:12:26.679Z,4.20
2023-02-02T15:18:39.178Z,4.10
2023-02-02T15:24:45.268Z,4.00
2023-02-02T15:30:56.767Z,3.90
2023-02-02T15:37:05.880Z,3.90
2023-02-02T15:43:10.575Z,3.80
2023-02-02T15:49:33.836Z,3.70
2023-02-02T15:55:36.863Z,3.60
2023-02-02T16:01:47.523Z,3.60
2023-02-02T16:08:03.691Z,3.60
2023-02-02T16:14:13.974Z,3.60
2023-02-02T16:20:18.126Z,3.60
2023-02-02T16:26:29.603Z,3.60
2023-02-02T16:32:35.215Z,3.70
2023-02-02T16:38:40.633Z,3.70
2023-02-02T16:44:43.853Z,3.60
2023-02-02T16:50:47.651Z,3.50
2023-02-02T16:57:01.029Z,3.50
2023-02-02T17:03:10.532Z,3.40
2023-02-02T17:09:40.851Z,3.40
2023-02-02T17:15:42.648Z,3.30
2023-02-02T17:21:44.490Z,3.30
2023-02-02T17:27:46.818Z,3.30
2023-02-02T17:33:48.605Z,3.20
2023-02-02T17:39:50.820Z,3.20
2023-02-02T17:45:53.170Z,3.10
2023-02-02T17:51:55.195Z,3.10
2023-02-02T17:57:57.300Z,3.10
2023-02-02T18:03:59.133Z,3.10
2023-02-02T18:10:00.946Z,3.00
2023-02-02T18:16:05.485Z,3.10
2023-02-02T18:22:07.437Z,3.00
2023-02-02T18:28:10.749Z,3.10
2023-02-02T18:34:12.750Z,3.20
2023-02-02T18:40:14.863Z,3.30
2023-02-02T18:46:17.343Z,3.30
2023-02-02T18:52:19.896Z,3.30
2023-02-02T18:58:21.861Z,3.00
2023-02-02T19:04:25.919Z,2.80
2023-02-02T19:10:30.353Z,2.80
2023-02-02T19:16:34.531Z,2.90
2023-02-02T19:22:37.202Z,3.00
2023-02-02T19:28:39.895Z,3.00
2023-02-02T19:34:42.143Z,3.10
2023-02-02T19:40:44.613Z,3.20
2023-02-02T19:46:49.965Z,3.20
2023-02-02T19:52:53.513Z,3.10
2023-02-02T19:58:56.832Z,3.10
2023-02-02T20:05:11.094Z,3.00
2023-02-02T20:11:35.659Z,3.00
2023-02-02T20:17:40.424Z,3.10
2023-02-02T20:23:44.612Z,3.10
2023-02-02T20:29:49.154Z,3.10
2023-02-02T20:35:51.172Z,3.10
2023-02-02T20:41:57.401Z,3.00
2023-02-02T20:47:59.262Z,3.00
2023-02-02T20:54:01.092Z,2.90
2023-02-02T21:00:03.019Z,2.90
2023-02-02T21:06:07.491Z,2.90
2023-02-02T21:12:09.431Z,2.80
2023-02-02T21:18:11.382Z,2.90
2023-02-02T21:24:13.221Z,3.00
2023-02-02T21:30:15.125Z,2.80
2023-02-02T21:36:36.749Z,2.80
2023-02-02T21:42:38.816Z,2.90
2023-02-02T21:48:42.079Z,2.90
2023-02-02T21:54:44.557Z,2.90
2023-02-02T22:00:46.700Z,2.80
2023-02-02T22:07:15.705Z,2.90
2023-02-02T22:13:19.103Z,2.90
2023-02-02T22:19:31.270Z,2.80
2023-02-02T22:25:36.575Z,3.00
2023-02-02T22:31:38.584Z,3.00
2023-02-02T22:37:40.892Z,3.10
2023-02-02T22:43:42.872Z,3.20
2023-02-02T22:49:44.673Z,3.40
2023-02-02T22:55:46.478Z,3.40
2023-02-02T23:01:48.287Z,3.40
2023-02-02T23:07:50.988Z,3.50
2023-02-02T23:13:52.814Z,3.60
2023-02-02T23:19:54.702Z,3.70
2023-02-02T23:25:56.516Z,3.70
2023-02-02T23:38:31.146Z,3.80
2023-02-02T23:44:32.871Z,3.90
2023-02-02T23:50:39.704Z,4.00
2023-02-02T23:56:42.323Z,4.10
